Time;durP1;ratioP1;P1;durP2;ratioP2;P2;SDS_P1;SDS_P2;PMS_P1;PMS_P2;Temp;Humidity;BMP_temperature;BMP_pressure;BME280_temperature;BME280_humidity;BME280_pressure;Samples;Min_cycle;Max_cycle;Signal;HPM_P1;HPM_P2
2020/12/12 00:01:15;;;;;;;25.20;11.37;;;1.70;99.90;;;;;;10467859;27;84605;-73
2020/12/12 00:06:21;;;;;;;18.37;9.47;;;1.70;99.90;;;;;;10484865;27;83445;-73
2020/12/12 00:11:24;;;;;;;13.13;7.20;;;1.80;99.90;;;;;;10494702;27;82574;-72
2020/12/12 00:16:25;;;;;;;17.80;8.70;;;1.80;99.90;;;;;;10488570;27;82265;-72
2020/12/12 00:21:27;;;;;;;19.10;8.77;;;1.80;99.90;;;;;;10511702;27;82536;-72
2020/12/12 00:26:29;;;;;;;12.80;6.87;;;1.90;99.90;;;;;;10470980;27;85149;-72
2020/12/12 00:31:31;;;;;;;18.67;7.83;;;1.90;99.90;;;;;;10495471;27;83826;-73
2020/12/12 00:36:41;;;;;;;24.97;13.40;;;1.90;99.90;;;;;;10485171;27;82836;-73
2020/12/12 00:41:44;;;;;;;12.17;8.07;;;1.80;99.90;;;;;;10483833;27;82685;-73
2020/12/12 00:46:46;;;;;;;28.47;13.97;;;1.80;99.90;;;;;;10470625;27;83486;-73
2020/12/12 00:51:47;;;;;;;16.40;10.57;;;1.80;99.90;;;;;;10496142;27;83515;-73
2020/12/12 00:56:50;;;;;;;44.20;23.20;;;1.80;99.90;;;;;;10510145;27;87562;-73
2020/12/12 01:01:52;;;;;;;85.40;43.20;;;2.00;99.90;;;;;;10493125;27;83062;-73
2020/12/12 01:06:53;;;;;;;55.27;29.10;;;2.00;99.90;;;;;;10466593;27;84288;-70
2020/12/12 01:11:56;;;;;;;53.90;30.43;;;2.00;99.90;;;;;;10492595;27;82664;-71
2020/12/12 01:16:59;;;;;;;98.13;53.60;;;2.00;99.90;;;;;;10494338;27;82657;-71
2020/12/12 01:22:01;;;;;;;134.73;72.73;;;2.00;99.90;;;;;;10486924;27;83492;-71
2020/12/12 01:27:04;;;;;;;101.10;54.50;;;1.90;99.90;;;;;;10507922;27;83264;-72
2020/12/12 01:32:05;;;;;;;171.37;81.23;;;1.80;99.90;;;;;;10491655;27;83087;-72
2020/12/12 01:37:07;;;;;;;48.70;26.70;;;1.80;99.90;;;;;;10490479;27;83193;-72
2020/12/12 01:42:09;;;;;;;44.90;21.60;;;1.80;99.90;;;;;;10489709;27;82604;-72
2020/12/12 01:47:11;;;;;;;109.73;56.83;;;1.80;99.90;;;;;;10466855;27;83482;-72
2020/12/12 01:52:14;;;;;;;73.03;38.60;;;1.80;99.90;;;;;;10502932;27;84739;-73
2020/12/12 01:57:19;;;;;;;148.30;75.77;;;1.90;99.90;;;;;;10501311;27;82558;-72
2020/12/12 02:02:22;;;;;;;148.27;79.40;;;1.90;99.90;;;;;;10507867;27;82582;-72
2020/12/12 02:07:25;;;;;;;138.10;73.03;;;2.00;99.90;;;;;;10482951;27;83220;-73
2020/12/12 02:12:28;;;;;;;121.40;62.83;;;2.00;99.90;;;;;;10491706;27;82591;-73
2020/12/12 02:17:29;;;;;;;120.50;65.87;;;2.10;99.90;;;;;;10487099;27;83323;-72
2020/12/12 02:22:32;;;;;;;131.23;72.00;;;2.10;99.90;;;;;;10516560;27;83368;-73
2020/12/12 02:27:34;;;;;;;131.60;71.87;;;2.20;99.90;;;;;;10500955;27;82922;-73
2020/12/12 02:32:36;;;;;;;63.80;35.63;;;2.20;99.90;;;;;;10504908;27;83181;-73
2020/12/12 02:37:39;;;;;;;65.67;34.57;;;2.20;99.90;;;;;;10505626;27;84387;-73
2020/12/12 02:42:40;;;;;;;65.30;38.17;;;2.20;99.90;;;;;;10490726;27;83789;-73
2020/12/12 02:47:44;;;;;;;166.53;84.67;;;2.20;99.90;;;;;;10497825;27;82678;-73
2020/12/12 02:52:47;;;;;;;65.63;34.23;;;2.10;99.90;;;;;;10460513;27;83840;-73
2020/12/12 02:57:48;;;;;;;59.70;33.03;;;2.10;99.90;;;;;;10483349;27;83350;-73
2020/12/12 03:02:50;;;;;;;61.93;32.30;;;2.10;99.90;;;;;;10472672;27;83969;-73
2020/12/12 03:07:55;;;;;;;37.77;21.80;;;2.10;99.90;;;;;;10437972;27;85248;-73
2020/12/12 03:12:57;;;;;;;126.63;65.47;;;2.20;99.90;;;;;;10443187;27;84478;-73
2020/12/12 03:17:58;;;;;;;208.03;121.47;;;2.30;99.90;;;;;;10485977;27;83031;-72
2020/12/12 03:23:01;;;;;;;136.83;79.83;;;2.30;99.90;;;;;;10486819;27;85328;-73
2020/12/12 03:28:02;;;;;;;185.13;103.50;;;2.40;99.90;;;;;;10484401;27;83557;-73
2020/12/12 03:33:07;;;;;;;314.87;193.53;;;2.40;99.90;;;;;;10511234;27;85176;-73
2020/12/12 03:38:09;;;;;;;361.93;268.60;;;2.40;99.90;;;;;;10494449;27;87642;-73
2020/12/12 03:43:11;;;;;;;105.00;56.13;;;2.40;99.90;;;;;;10500173;27;85691;-72
2020/12/12 03:48:12;;;;;;;74.93;39.43;;;2.30;99.90;;;;;;10493804;27;83588;-72
2020/12/12 03:53:15;;;;;;;137.80;79.87;;;2.40;99.90;;;;;;10483205;27;84299;-72
2020/12/12 03:58:16;;;;;;;96.83;53.50;;;2.40;99.90;;;;;;10475999;27;85807;-72
2020/12/12 04:03:18;;;;;;;80.60;45.27;;;2.40;99.90;;;;;;10494574;27;83363;-72
2020/12/12 04:08:20;;;;;;;188.90;94.63;;;2.30;99.90;;;;;;10483256;27;84919;-72
2020/12/12 04:13:22;;;;;;;433.50;279.93;;;2.30;99.90;;;;;;10498652;27;82999;-72
2020/12/12 04:18:24;;;;;;;489.83;303.97;;;2.40;99.90;;;;;;10498515;27;85090;-72
2020/12/12 04:23:26;;;;;;;339.77;227.53;;;2.40;99.90;;;;;;10513028;27;85050;-72
2020/12/12 04:28:28;;;;;;;472.83;353.33;;;2.40;99.90;;;;;;10485120;27;85508;-72
2020/12/12 04:33:29;;;;;;;38.90;18.73;;;2.40;99.90;;;;;;10484520;27;85448;-72
2020/12/12 04:38:35;;;;;;;58.87;29.70;;;2.50;99.90;;;;;;10500192;27;84198;-72
2020/12/12 04:43:39;;;;;;;64.50;35.23;;;2.40;99.90;;;;;;10500456;27;82660;-72
2020/12/12 04:48:41;;;;;;;85.90;44.30;;;2.50;99.90;;;;;;10478863;27;83530;-72
2020/12/12 04:53:44;;;;;;;337.27;180.67;;;2.40;99.90;;;;;;10500920;27;82525;-72
2020/12/12 04:58:50;;;;;;;293.20;153.60;;;2.30;99.90;;;;;;10482125;27;85109;-72
2020/12/12 05:03:55;;;;;;;261.87;131.57;;;2.20;99.90;;;;;;10453006;27;87146;-72
2020/12/12 05:08:57;;;;;;;199.60;99.83;;;2.20;99.90;;;;;;10436716;27;86698;-72
2020/12/12 05:13:59;;;;;;;307.87;163.13;;;2.20;99.90;;;;;;10442791;27;84572;-71
2020/12/12 05:19:03;;;;;;;257.13;127.27;;;2.20;99.90;;;;;;10441196;27;87452;-72
2020/12/12 05:24:06;;;;;;;252.93;129.87;;;2.20;99.90;;;;;;10443806;27;87043;-72
2020/12/12 05:29:08;;;;;;;244.93;130.07;;;2.20;99.90;;;;;;10443840;27;87178;-71
2020/12/12 05:34:12;;;;;;;241.50;125.20;;;2.20;99.90;;;;;;10450198;27;87342;-72
2020/12/12 05:39:15;;;;;;;197.87;98.70;;;2.10;99.90;;;;;;10444013;27;87141;-72
2020/12/12 05:44:18;;;;;;;252.10;128.50;;;2.20;99.90;;;;;;10461964;27;84797;-72
2020/12/12 05:49:20;;;;;;;520.60;321.07;;;2.30;99.90;;;;;;10466888;27;87046;-72
2020/12/12 05:54:24;;;;;;;556.17;348.47;;;2.40;99.90;;;;;;10443882;27;87250;-72
2020/12/12 05:59:26;;;;;;;760.30;562.60;;;2.40;99.90;;;;;;10442783;27;87267;-73
2020/12/12 06:04:35;;;;;;;926.10;760.63;;;2.30;99.90;;;;;;10440504;27;87065;-72
2020/12/12 06:09:38;;;;;;;742.50;562.40;;;2.30;99.90;;;;;;10445552;27;88318;-73
2020/12/12 06:14:45;;;;;;;830.00;634.03;;;2.40;99.90;;;;;;10445133;27;87226;-73
2020/12/12 06:19:48;;;;;;;1202.30;829.27;;;2.50;99.90;;;;;;10462378;27;87058;-73
2020/12/12 06:24:59;;;;;;;1182.30;817.47;;;2.50;99.90;;;;;;10443748;27;86581;-73
2020/12/12 06:30:03;;;;;;;1025.97;784.93;;;2.50;99.90;;;;;;10449080;27;86886;-73
2020/12/12 06:35:05;;;;;;;875.37;640.53;;;2.60;99.90;;;;;;10444069;27;86885;-73
2020/12/12 06:40:09;;;;;;;839.13;625.20;;;2.60;99.90;;;;;;10440057;27;86896;-73
2020/12/12 06:45:32;;;;;;;1038.40;788.10;;;2.60;99.90;;;;;;10440727;27;87079;-72
2020/12/12 06:50:37;;;;;;;1094.57;820.13;;;2.60;99.90;;;;;;10445208;27;87187;-71
2020/12/12 06:55:39;;;;;;;1076.53;819.33;;;2.60;99.90;;;;;;10442172;27;87094;-73
2020/12/12 07:00:41;;;;;;;1081.07;819.87;;;2.60;99.90;;;;;;10451792;27;87020;-73
2020/12/12 07:05:42;;;;;;;995.00;778.80;;;2.60;99.90;;;;;;10444027;27;87230;-72
2020/12/12 07:10:45;;;;;;;977.03;737.80;;;2.70;99.90;;;;;;10442383;27;87377;-72
2020/12/12 07:15:47;;;;;;;1020.70;804.10;;;2.70;99.90;;;;;;10440543;27;87277;-73
2020/12/12 07:20:49;;;;;;;1092.97;814.03;;;2.70;99.90;;;;;;10439966;27;86277;-73
2020/12/12 07:25:52;;;;;;;1043.60;788.63;;;2.80;99.90;;;;;;10446209;27;86665;-72
2020/12/12 07:30:54;;;;;;;916.60;691.83;;;2.80;99.90;;;;;;10441238;27;87034;-72
2020/12/12 07:35:55;;;;;;;1001.17;749.80;;;2.80;99.90;;;;;;10464376;27;86833;-73
2020/12/12 07:40:58;;;;;;;887.93;666.70;;;2.80;99.90;;;;;;10440057;27;86577;-73
2020/12/12 07:46:04;;;;;;;861.90;618.77;;;2.80;99.90;;;;;;10461671;27;87149;-73
2020/12/12 07:51:12;;;;;;;961.10;721.33;;;2.80;99.90;;;;;;10425426;27;87329;-72
2020/12/12 07:56:17;;;;;;;954.03;727.37;;;2.90;99.90;;;;;;10439531;27;87641;-72
2020/12/12 08:01:24;;;;;;;1078.83;811.77;;;2.90;99.90;;;;;;10439952;27;86592;-72
2020/12/12 08:06:26;;;;;;;879.67;648.57;;;3.00;99.90;;;;;;10441959;27;87204;-72
2020/12/12 08:11:30;;;;;;;789.73;553.43;;;3.00;99.90;;;;;;10424124;27;87351;-72
2020/12/12 08:16:38;;;;;;;598.63;437.40;;;3.00;99.90;;;;;;10442263;27;87345;-73
2020/12/12 08:21:40;;;;;;;651.13;435.57;;;3.10;99.90;;;;;;10437644;27;87317;-73
2020/12/12 08:26:42;;;;;;;856.33;621.97;;;3.10;99.90;;;;;;10439448;27;87265;-73
2020/12/12 08:31:44;;;;;;;855.33;624.80;;;3.10;99.90;;;;;;10453205;27;87698;-74
2020/12/12 08:36:46;;;;;;;962.60;710.50;;;3.10;99.90;;;;;;10438080;27;87310;-73
2020/12/12 08:41:48;;;;;;;810.37;559.00;;;3.20;99.90;;;;;;10442648;27;87125;-74
2020/12/12 08:46:53;;;;;;;772.47;544.20;;;3.30;99.90;;;;;;10436707;27;86737;-72
2020/12/12 08:51:55;;;;;;;640.60;433.00;;;3.60;99.90;;;;;;10479395;27;87615;-72
2020/12/12 08:57:09;;;;;;;728.50;515.93;;;3.70;99.90;;;;;;10504524;27;85725;-74
2020/12/12 09:02:17;;;;;;;79.57;41.33;;;3.90;99.90;;;;;;10501630;27;85007;-74
2020/12/12 09:07:23;;;;;;;281.20;156.67;;;4.00;99.90;;;;;;10507537;27;82981;-73
2020/12/12 09:12:25;;;;;;;143.30;75.03;;;4.00;99.90;;;;;;10489663;27;85149;-72
2020/12/12 09:17:27;;;;;;;203.37;104.70;;;4.10;99.90;;;;;;10496313;27;83652;-72
2020/12/12 09:22:28;;;;;;;406.57;264.43;;;4.10;99.90;;;;;;10494806;27;85253;-72
2020/12/12 09:27:31;;;;;;;710.30;520.23;;;4.20;99.90;;;;;;10491202;27;85070;-74
2020/12/12 09:32:32;;;;;;;959.53;742.63;;;4.20;99.90;;;;;;10495653;27;85022;-73
2020/12/12 09:37:34;;;;;;;676.70;429.00;;;4.30;99.90;;;;;;10512640;27;85553;-74
2020/12/12 09:42:36;;;;;;;286.57;166.03;;;4.40;99.90;;;;;;10494970;27;85119;-75
2020/12/12 09:47:38;;;;;;;829.97;660.50;;;4.60;99.90;;;;;;10489123;27;85263;-75
2020/12/12 09:52:39;;;;;;;239.53;159.03;;;4.80;99.90;;;;;;10492962;27;85041;-74
2020/12/12 09:57:42;;;;;;;636.83;450.13;;;5.00;99.90;;;;;;10503443;27;86850;-75
2020/12/12 10:02:43;;;;;;;603.43;461.87;;;5.30;99.90;;;;;;10490404;27;85167;-74
2020/12/12 10:07:45;;;;;;;72.97;41.93;;;5.50;99.90;;;;;;10494450;27;85800;-74
2020/12/12 10:12:47;;;;;;;287.07;155.93;;;5.80;99.90;;;;;;10502175;27;83351;-75
2020/12/12 10:17:50;;;;;;;365.13;203.47;;;6.00;99.90;;;;;;10507477;27;85248;-73
2020/12/12 10:22:52;;;;;;;642.73;460.17;;;6.10;99.90;;;;;;10494300;27;85544;-72
2020/12/12 10:27:56;;;;;;;687.47;433.17;;;6.10;99.90;;;;;;10511726;27;85856;-73
2020/12/12 10:33:00;;;;;;;348.77;176.10;;;6.10;99.90;;;;;;10506453;27;85156;-73
2020/12/12 10:38:05;;;;;;;516.03;393.90;;;6.10;99.90;;;;;;10504907;27;85022;-73
2020/12/12 10:43:09;;;;;;;383.40;249.00;;;6.10;99.90;;;;;;10508500;27;85878;-74
2020/12/12 10:48:11;;;;;;;826.70;719.80;;;6.00;99.90;;;;;;10509894;27;85431;-73
2020/12/12 10:53:13;;;;;;;734.50;641.43;;;6.00;99.90;;;;;;10514158;27;85268;-74
2020/12/12 10:58:15;;;;;;;936.83;822.47;;;6.00;99.90;;;;;;10509392;27;90062;-73
2020/12/12 11:03:17;;;;;;;893.50;692.97;;;6.00;99.90;;;;;;10512732;27;85169;-74
2020/12/12 11:08:18;;;;;;;717.47;598.10;;;6.00;99.90;;;;;;10508887;27;86023;-75
2020/12/12 11:13:21;;;;;;;376.60;249.83;;;6.10;99.90;;;;;;10511818;27;85419;-73
2020/12/12 11:18:22;;;;;;;557.77;497.33;;;5.90;99.90;;;;;;10510244;27;86099;-73
2020/12/12 11:23:24;;;;;;;18.17;7.43;;;6.00;99.90;;;;;;10511525;27;85226;-73
2020/12/12 11:28:26;;;;;;;17.93;7.83;;;6.10;99.90;;;;;;10514057;27;82595;-73
2020/12/12 11:33:28;;;;;;;20.97;8.03;;;6.10;99.90;;;;;;10507578;27;83109;-73
2020/12/12 11:38:35;;;;;;;19.40;8.07;;;6.10;99.90;;;;;;10515079;27;82799;-75
2020/12/12 11:48:58;;;;;;;63.30;34.67;;;6.20;99.90;;;;;;10338932;28;83514;-74
2020/12/12 11:53:59;;;;;;;89.07;50.60;;;6.20;99.90;;;;;;10331876;28;83936;-73
2020/12/12 11:59:02;;;;;;;142.13;78.90;;;6.20;99.90;;;;;;10341467;28;84303;-73
2020/12/12 12:04:04;;;;;;;338.53;171.13;;;6.30;99.90;;;;;;10324983;28;85060;-73
2020/12/12 12:09:21;;;;;;;936.13;717.70;;;6.30;99.90;;;;;;10335110;28;85872;-73
2020/12/12 12:14:23;;;;;;;730.30;542.37;;;6.30;99.90;;;;;;10337422;28;85530;-73
2020/12/12 12:19:25;;;;;;;171.47;81.77;;;6.30;99.90;;;;;;10336353;28;85316;-74
2020/12/12 12:24:26;;;;;;;203.10;102.57;;;6.30;99.90;;;;;;10411939;27;83772;-74
2020/12/12 12:29:29;;;;;;;347.10;209.07;;;6.30;99.90;;;;;;10505208;27;85718;-73
2020/12/12 12:34:30;;;;;;;293.27;194.73;;;6.30;99.90;;;;;;10504934;27;85519;-72
2020/12/12 12:39:32;;;;;;;159.00;88.83;;;6.40;99.90;;;;;;10508337;27;85037;-73
2020/12/12 12:44:34;;;;;;;193.90;117.87;;;6.50;99.90;;;;;;10501751;27;83102;-74
2020/12/12 12:49:36;;;;;;;277.93;185.13;;;6.60;99.90;;;;;;10508177;27;86209;-73
2020/12/12 12:54:38;;;;;;;250.23;155.33;;;6.60;99.90;;;;;;10505244;27;86462;-73
2020/12/12 12:59:41;;;;;;;354.50;224.87;;;6.60;99.90;;;;;;10503771;27;85109;-74
2020/12/12 13:04:43;;;;;;;54.77;28.70;;;6.70;99.90;;;;;;10493622;27;86282;-74
2020/12/12 13:09:45;;;;;;;37.97;18.57;;;6.70;99.90;;;;;;10508240;27;83026;-72
2020/12/12 13:14:47;;;;;;;229.30;62.97;;;6.70;99.90;;;;;;10508626;27;83485;-73
2020/12/12 13:19:52;;;;;;;174.67;93.73;;;6.70;99.90;;;;;;10507350;27;83254;-71
2020/12/12 13:24:53;;;;;;;142.67;55.83;;;6.60;99.90;;;;;;10509068;27;84512;-71
2020/12/12 13:35:16;;;;;;;402.37;311.20;;;6.60;99.90;;;;;;10509140;27;83732;-70
2020/12/12 13:40:18;;;;;;;589.80;497.43;;;6.60;99.90;;;;;;10504053;27;87507;-70
2020/12/12 13:45:20;;;;;;;381.23;276.27;;;6.50;99.90;;;;;;10509066;27;85094;-70
2020/12/12 13:50:21;;;;;;;322.63;207.43;;;6.60;99.90;;;;;;10513843;27;86132;-72
2020/12/12 13:55:23;;;;;;;438.53;306.13;;;6.60;99.90;;;;;;10510446;27;85848;-71
2020/12/12 14:00:26;;;;;;;290.33;207.97;;;6.60;99.90;;;;;;10494885;27;85007;-71
2020/12/12 14:05:29;;;;;;;414.77;286.07;;;6.60;99.90;;;;;;10486951;27;85891;-71
2020/12/12 14:10:56;;;;;;;447.80;354.63;;;6.70;99.90;;;;;;10505599;27;86939;-73
2020/12/12 14:32:15;;;;;;;569.60;486.80;;;6.70;99.90;;;;;;10400709;28;85699;-74
2020/12/12 14:37:17;;;;;;;575.93;473.37;;;6.60;99.90;;;;;;10404889;28;85547;-72
2020/12/12 14:42:19;;;;;;;450.67;359.47;;;6.60;99.90;;;;;;10404816;28;85992;-73
2020/12/12 14:47:24;;;;;;;307.20;224.60;;;6.50;99.90;;;;;;10399935;28;85620;-71
2020/12/12 14:52:30;;;;;;;247.80;152.63;;;6.50;99.90;;;;;;10402392;28;85243;-71
2020/12/12 14:57:32;;;;;;;500.13;381.10;;;6.50;99.90;;;;;;10453598;27;85696;-72
2020/12/12 15:02:35;;;;;;;362.03;253.40;;;6.40;99.90;;;;;;10455989;27;86706;-69
2020/12/12 15:07:38;;;;;;;243.30;151.07;;;6.50;99.90;;;;;;10470014;27;85618;-70
2020/12/12 15:12:42;;;;;;;41.83;25.70;;;6.50;99.90;;;;;;10457723;27;85605;-70
2020/12/12 15:17:44;;;;;;;131.23;71.07;;;6.40;99.90;;;;;;10466023;27;83629;-70
2020/12/12 15:22:46;;;;;;;273.67;172.47;;;6.40;99.90;;;;;;10459976;27;82679;-70
2020/12/12 15:27:47;;;;;;;424.23;304.20;;;6.40;99.90;;;;;;10461407;27;85729;-71
2020/12/12 15:32:50;;;;;;;453.13;333.57;;;6.40;99.90;;;;;;10462259;27;85708;-71
2020/12/12 15:37:52;;;;;;;480.53;368.77;;;6.40;99.90;;;;;;10452946;27;85807;-70
2020/12/12 15:42:53;;;;;;;372.03;263.67;;;6.40;99.90;;;;;;10452525;27;85468;-71
2020/12/12 15:47:56;;;;;;;813.30;726.87;;;6.30;99.90;;;;;;10494128;27;85339;-71
2020/12/12 15:52:58;;;;;;;917.23;822.20;;;6.20;99.90;;;;;;10492472;27;85462;-70
2020/12/12 15:57:59;;;;;;;931.10;830.70;;;6.10;99.90;;;;;;10483171;27;85370;-70
2020/12/12 16:03:03;;;;;;;874.57;781.97;;;6.00;99.90;;;;;;10483239;27;85440;-69
2020/12/12 16:08:05;;;;;;;806.63;700.43;;;6.10;99.90;;;;;;10501997;27;85159;-71
2020/12/12 16:13:07;;;;;;;828.30;739.27;;;6.00;99.90;;;;;;10510290;27;86075;-70
2020/12/12 16:18:09;;;;;;;642.10;463.43;;;6.00;99.90;;;;;;10510060;27;86353;-71
2020/12/12 16:23:11;;;;;;;361.83;199.47;;;6.00;99.90;;;;;;10501745;27;85181;-71
2020/12/12 16:28:13;;;;;;;420.00;271.73;;;6.00;99.90;;;;;;10482573;27;85947;-71
2020/12/12 16:33:15;;;;;;;479.23;319.13;;;6.00;99.90;;;;;;10496013;27;85734;-72
2020/12/12 16:38:20;;;;;;;442.80;297.50;;;5.90;99.90;;;;;;10484542;27;86310;-72
2020/12/12 16:43:24;;;;;;;318.90;183.23;;;5.90;99.90;;;;;;10484480;27;86317;-70
2020/12/12 16:48:27;;;;;;;452.50;302.60;;;5.80;99.90;;;;;;10480541;27;87325;-70
2020/12/12 16:53:28;;;;;;;436.60;269.30;;;5.80;99.90;;;;;;10484923;27;85126;-71
2020/12/12 16:58:30;;;;;;;101.97;60.53;;;5.80;99.90;;;;;;10486200;27;86104;-71
2020/12/12 17:03:34;;;;;;;55.63;25.93;;;5.70;99.90;;;;;;10486496;27;84458;-71
2020/12/12 17:08:38;;;;;;;145.47;85.43;;;5.70;99.90;;;;;;10484030;27;84693;-73
2020/12/12 17:13:40;;;;;;;375.97;271.00;;;5.60;99.90;;;;;;10491166;27;83583;-71
2020/12/12 17:18:45;;;;;;;490.67;301.10;;;5.60;99.90;;;;;;10489664;27;86807;-71
2020/12/12 17:23:47;;;;;;;816.80;627.40;;;5.60;99.90;;;;;;10471559;27;86227;-71
2020/12/12 17:28:49;;;;;;;264.80;173.83;;;5.70;99.90;;;;;;10488815;27;87087;-72
2020/12/12 17:33:51;;;;;;;59.60;32.63;;;5.60;99.90;;;;;;10494016;27;85104;-72
2020/12/12 17:38:53;;;;;;;194.03;94.90;;;5.60;99.90;;;;;;10506684;27;85529;-72
2020/12/12 17:43:55;;;;;;;291.37;139.10;;;5.60;99.90;;;;;;10512060;27;83605;-70
2020/12/12 17:48:58;;;;;;;316.70;174.00;;;5.70;99.90;;;;;;10510692;27;85638;-70
2020/12/12 17:54:00;;;;;;;510.60;385.17;;;5.70;99.90;;;;;;10503301;27;85347;-71
2020/12/12 17:59:02;;;;;;;501.10;358.53;;;5.70;99.90;;;;;;10501803;27;85040;-72
2020/12/12 18:04:05;;;;;;;357.90;227.67;;;5.80;99.90;;;;;;10509515;27;85296;-70
2020/12/12 18:09:07;;;;;;;487.33;360.77;;;5.80;99.90;;;;;;10494047;27;85603;-72
2020/12/12 18:14:09;;;;;;;849.70;760.87;;;5.80;99.90;;;;;;10495071;27;85885;-73
2020/12/12 18:19:11;;;;;;;899.67;807.77;;;5.80;99.90;;;;;;10510692;27;85453;-73
2020/12/12 18:24:13;;;;;;;880.97;790.70;;;5.80;99.90;;;;;;10485784;27;85240;-71
2020/12/12 18:29:15;;;;;;;754.10;675.33;;;5.90;99.90;;;;;;10512922;27;85505;-71
2020/12/12 18:34:18;;;;;;;824.80;741.20;;;5.90;99.90;;;;;;10510518;27;86036;-72
2020/12/12 18:39:20;;;;;;;709.40;633.77;;;5.90;99.90;;;;;;10510123;27;86862;-74
2020/12/12 18:44:22;;;;;;;430.80;331.23;;;6.00;99.90;;;;;;10509605;27;86245;-73
2020/12/12 18:49:25;;;;;;;61.87;36.07;;;5.90;99.90;;;;;;10477406;27;85872;-72
2020/12/12 18:54:27;;;;;;;400.50;312.67;;;5.90;99.90;;;;;;10504820;27;84867;-73
2020/12/12 18:59:28;;;;;;;906.83;813.13;;;5.90;99.90;;;;;;10485019;27;85829;-71
2020/12/12 19:04:31;;;;;;;940.57;836.43;;;5.90;99.90;;;;;;10506154;27;86258;-69
2020/12/12 19:09:32;;;;;;;746.37;603.17;;;5.90;99.90;;;;;;10497027;27;85436;-70
2020/12/12 19:14:34;;;;;;;852.23;761.23;;;6.00;99.90;;;;;;10503838;27;85286;-69
2020/12/12 19:19:37;;;;;;;909.40;814.03;;;6.00;99.90;;;;;;10508099;27;87046;-69
2020/12/12 19:24:39;;;;;;;768.57;687.53;;;6.00;99.90;;;;;;10507656;27;87042;-70
2020/12/12 19:29:41;;;;;;;779.90;695.53;;;6.00;99.90;;;;;;10501628;27;85370;-69
2020/12/12 19:34:43;;;;;;;259.53;187.80;;;6.00;99.90;;;;;;10505739;27;86216;-70
2020/12/12 19:39:45;;;;;;;126.23;74.83;;;5.90;99.90;;;;;;10504754;27;85224;-70
2020/12/12 19:44:48;;;;;;;33.17;19.37;;;5.90;99.90;;;;;;10504964;27;83125;-70
2020/12/12 19:49:53;;;;;;;124.67;90.97;;;5.90;99.90;;;;;;10486500;27;83364;-72
2020/12/12 19:54:55;;;;;;;67.20;41.83;;;5.90;99.90;;;;;;10505008;27;83432;-72
2020/12/12 19:59:57;;;;;;;214.10;132.13;;;5.80;99.90;;;;;;10503275;27;83209;-71
2020/12/12 20:05:02;;;;;;;523.30;404.80;;;5.80;99.90;;;;;;10498124;27;85175;-72
2020/12/12 20:10:05;;;;;;;210.33;148.20;;;5.80;99.90;;;;;;10503015;27;86292;-71
2020/12/12 20:15:08;;;;;;;149.20;85.03;;;5.90;99.90;;;;;;10500232;27;86307;-72
2020/12/12 20:20:11;;;;;;;117.07;70.30;;;5.90;99.90;;;;;;10506088;27;83731;-72
2020/12/12 20:25:13;;;;;;;170.60;104.97;;;5.90;99.90;;;;;;10503753;27;83704;-71
2020/12/12 20:30:15;;;;;;;302.53;209.60;;;5.90;99.90;;;;;;10500138;27;86958;-71
2020/12/12 20:35:18;;;;;;;577.63;478.03;;;5.90;99.90;;;;;;10504930;27;86577;-71
2020/12/12 20:40:21;;;;;;;663.43;590.87;;;5.90;99.90;;;;;;10501259;27;86108;-72
2020/12/12 20:45:24;;;;;;;666.00;592.87;;;5.90;99.90;;;;;;10499347;27;85207;-71
2020/12/12 20:50:34;;;;;;;868.60;778.63;;;6.00;99.90;;;;;;10505992;27;85306;-71
2020/12/12 20:55:39;;;;;;;875.40;784.97;;;6.00;99.90;;;;;;10507920;27;86179;-72
2020/12/12 21:00:45;;;;;;;855.67;767.10;;;5.90;99.90;;;;;;10507059;27;86207;-72
2020/12/12 21:05:48;;;;;;;851.97;763.30;;;6.00;99.90;;;;;;10502457;27;85545;-70
2020/12/12 21:10:49;;;;;;;438.20;336.13;;;5.90;99.90;;;;;;10500029;27;85929;-71
2020/12/12 21:15:52;;;;;;;261.90;162.37;;;6.00;99.90;;;;;;10503310;27;85467;-70
2020/12/12 21:20:54;;;;;;;258.60;170.43;;;6.00;99.90;;;;;;10497082;27;86098;-71
2020/12/12 21:25:56;;;;;;;449.30;349.17;;;5.90;99.90;;;;;;10506314;27;85130;-71
2020/12/12 21:30:58;;;;;;;65.27;39.97;;;5.90;99.90;;;;;;10502808;27;85508;-70
2020/12/12 21:36:00;;;;;;;104.40;63.10;;;5.90;99.90;;;;;;10506230;27;83552;-72
2020/12/12 21:41:02;;;;;;;80.70;47.90;;;5.80;99.90;;;;;;10506873;27;83016;-71
2020/12/12 21:46:04;;;;;;;326.17;260.03;;;5.80;99.90;;;;;;10509733;27;83566;-71
2020/12/12 21:51:06;;;;;;;402.67;287.13;;;5.80;99.90;;;;;;10505254;27;85550;-72
2020/12/12 21:56:12;;;;;;;495.33;389.57;;;5.80;99.90;;;;;;10503581;27;86260;-71
2020/12/12 22:01:17;;;;;;;451.50;323.67;;;5.80;99.90;;;;;;10508266;27;85252;-72
2020/12/12 22:06:28;;;;;;;593.23;470.63;;;5.80;99.90;;;;;;10508811;27;85657;-71
2020/12/12 22:11:30;;;;;;;850.00;675.80;;;5.90;99.90;;;;;;10508242;27;85794;-71
2020/12/12 22:16:32;;;;;;;995.87;831.97;;;5.80;99.90;;;;;;10507168;27;86148;-71
2020/12/12 22:21:35;;;;;;;1042.77;837.03;;;5.80;99.90;;;;;;10512508;27;86352;-71
2020/12/12 22:26:37;;;;;;;1026.10;836.97;;;5.80;99.90;;;;;;10509832;27;85401;-71
2020/12/12 22:31:41;;;;;;;1011.30;842.63;;;5.80;99.90;;;;;;10511335;27;85454;-71
2020/12/12 22:36:43;;;;;;;972.90;831.67;;;5.90;99.90;;;;;;10490713;27;86284;-71
2020/12/12 22:41:46;;;;;;;1000.10;838.77;;;5.90;99.90;;;;;;10487148;27;85861;-71
2020/12/12 22:46:47;;;;;;;1070.50;846.83;;;5.90;99.90;;;;;;10506475;27;86263;-71
2020/12/12 22:51:55;;;;;;;935.17;831.80;;;5.90;99.90;;;;;;10508417;27;85522;-71
2020/12/12 22:57:00;;;;;;;1002.27;841.53;;;5.90;99.90;;;;;;10507874;27;86601;-71
2020/12/12 23:02:09;;;;;;;982.73;837.60;;;5.90;99.90;;;;;;10497331;27;86019;-71
2020/12/12 23:07:12;;;;;;;994.33;843.43;;;5.90;99.90;;;;;;10505398;27;87696;-71
2020/12/12 23:12:16;;;;;;;961.87;836.80;;;5.90;99.90;;;;;;10492340;27;86197;-71
2020/12/12 23:17:18;;;;;;;969.67;839.53;;;5.90;99.90;;;;;;10510955;27;85119;-71
2020/12/12 23:22:23;;;;;;;911.07;815.80;;;5.90;99.90;;;;;;10505413;27;85025;-71
2020/12/12 23:27:25;;;;;;;913.73;815.93;;;5.90;99.90;;;;;;10505227;27;85128;-71
2020/12/12 23:32:49;;;;;;;909.40;814.43;;;5.90;99.90;;;;;;10509936;27;85014;-72
2020/12/12 23:37:52;;;;;;;1021.23;850.27;;;5.90;99.90;;;;;;10507450;27;86226;-71
2020/12/12 23:42:53;;;;;;;938.13;834.77;;;5.90;99.90;;;;;;10511083;27;85657;-71
2020/12/12 23:47:55;;;;;;;830.37;744.10;;;6.00;99.90;;;;;;10503643;27;85616;-70
2020/12/12 23:52:58;;;;;;;919.20;824.30;;;5.90;99.90;;;;;;10505668;27;85395;-71
2020/12/12 23:58:02;;;;;;;917.10;820.30;;;5.90;99.90;;;;;;10509760;27;86072;-71
